cliquez pour ajouter le site Runraid à vos favoris  English version (google)  Retour à l'accueil Ecrire à l'auteur du site Runraid : Michel Jourdan



Les prochaines courses


Les derniers résultats

cliquez pour visualiser la page complète relatant la chronologie des éruptions du Piton de la Fournaise
éruptions Piton de la Fournaise


Ile de La Réunion

 Diagonale des Fous 

Ecrire au créateur du site : Michel Jourdan
Contact


2016-12-20 - Trail de l Etang Saint Leu

Pour consulter le palmarès d'un coureur, un clic sur son nom !

Vous avez des remarques, corrections, ... sur ces résultats , un clic sur --> pour me transmettre toute information concernant les classements


Trail de l Etang Saint Leu - 2016 : classement des 157 finishers
Place Nom Temps Cat. Club Sexe Clt/cat.
Place Nom Temps Cat. Club Sexe Clt/cat.
1 PAYET Freddy 01:58:48 SEM M 193
2 ROGAUME Leo 02:00:32 ESM M 1 ESM 70
3 PAYET STEPHANE JEAN Pierre 02:05:10 SEM OUESTRAIL M 2 SEM 65
4 BATAILLE Gregory 02:06:51 SEM M 3 SEM 5
5 GARCIN Romain 02:06:54 SEM M 4 SEM 158
6 DUBOIS VIVIEN 02:11:58 ESM AC ST LEU M 2 ESM 109
7 PHALARIS Frederic 02:18:52 SEM M 5 SEM 78
8 VANDENESSE ARMAND 02:18:55 V1M M 1 V1M 121
9 CANGUEIRO jorge 02:19:58 SEM M 6 SEM 59
10 BOURDAIS Anthony 02:21:12 SEM M 7 SEM 177
11 RIBAULT Pierre 02:22:46 SEM M 8 SEM 60
12 THOMAS Loic 02:23:24 SEM M 9 SEM 194
13 DIJOUX Damien 02:26:19 SEM M 10 SEM 44
14 KERAMBRUN hugo 02:27:01 SEM M 11 SEM 45
15 ROCHE ERIC 02:28:10 SEM M 12 SEM 160
16 SINCERE pascal 02:28:10 V1M M 2 V1M 87
17 BOUDAS Dany 02:28:47 V1M M 3 V1M 190
18 GONTHIER Wielfrid 02:31:26 SEM M 13 SEM 153
19 REMY GUILLAUME 02:31:28 V1M AC ST LEU M 4 V1M 111
20 GERBELOT LEGRIS SOPHIE 02:31:45 SEF ACSP F 1ere F 56
21 GERVAIN Simon 02:32:15 SEM M 14 SEM 15
22 FONTAINE MATHIAS 02:32:42 SEM CAPC M 15 SEM 132
23 HOLLINGER CLEMENCE 02:35:09 SEF RUN'A F 2eme F 120
24 BAROS Damien 02:35:33 SEM M 16 SEM 189
25 MARIE MARTHE Miguel 02:35:39 SEM M 17 SEM 127
26 MUSSARD BERNARD 02:36:07 V2M M 1 V2M 128
27 BOYER JEAN MARY 02:37:54 V3M M 1 V3M 136
28 LEBON Wilson 02:38:08 SEM M 18 SEM 185
29 GOISLARD RENAUD 02:38:26 SEM AC ST LEU M 19 SEM 155
30 DIJOUX benjamin 02:39:05 JUM M 1 JUM 43
31 MINIAMA JEAN SEBASTIEN 02:42:44 V1M M 5 V1M 137
32 NOUYRIGAT PIERRE 02:42:58 SEM M 20 SEM 79
33 LESAGE Melanie 02:43:46 SEF F 3eme F 80
34 GONFO Luxene 02:45:21 V1M M 6 V1M 192
35 PAUSE cyrille 02:45:33 V2M M 2 V2M 47
36 TRAMONI Pascal 02:46:06 SEM M 21 SEM 188
37 MOREL ROBERTO 02:47:37 V2M M 3 V2M 68
38 LEBON joel 02:47:52 V1M M 7 V1M 27
39 PRONOST PHILIPPE 02:48:30 V1M AC ST LEU M 8 V1M 4
40 LEBON JANITO 02:48:32 V1M M 9 V1M 16
41 LESQUELIN Yohan 02:48:42 SEM M 22 SEM 175
42 DUPAS guillaume 02:48:51 SEM M 23 SEM 116
43 SEROC Danielle 02:49:15 V2F F 4 F - 1 V2F 191
44 BONIFACE TOUSSAINT JEAN PAUL 02:49:36 V1M M 10 V1M 114
45 MARIVAN STEPHANE 02:49:43 V1M M 11 V1M 14
46 MYLONAS VIRGINIE 02:50:14 V1F RUN'A F 5 F - 1 V1F 20
47 ACHELOUS Angelin 02:50:41 V2M M 4 V2M 171
48 NIRLO HUGUES THIERRY 02:50:53 SEM M 24 SEM 72
49 DESCORSIER ALAIN 02:51:47 V2M ORT M 5 V2M 89
50 ARISTOLE Dominique 02:52:01 V1M M 12 V1M 172
51 POBREZO Henri Claude 02:52:34 SEM M 25 SEM 174
52 AURE PATRICK 02:55:32 V2M OUESTRAIL M 6 V2M 69
53 BEGUE MICKAEL 02:55:35 SEM DSA M 26 SEM 28
54 PAYET Gilles 02:55:43 V3M M 2 V3M 125
55 REGNIER FRANCOIS 02:55:43 V2M CAPOSS M 7 V2M 21
56 HOAREAU Pascal 02:56:00 SEM M 27 SEM 41
57 COMA Fabien 02:56:38 V1M M 13 V1M 63
58 ERUDEL Raphael 02:57:48 SEM M 28 SEM 64
59 HEBERT Pascal 02:57:52 V3M M 3 V3M 77
60 PANSERA Sophie 02:59:31 V1F - F 6 F - 2 V1F 22
61 MAURY cedric 02:59:53 V1M M 14 V1M 51
62 DURAND INGRID 03:00:09 V1F RUN'A F 7 F - 3 V1F 88
63 DUFOUR Isabelle 03:00:51 V2F F 8 F - 2 V2F 52
64 RIVIERE SEBASTIEN 03:01:05 SEM RUN'A M 29 SEM 122
65 GARDENA Jean Pierre 03:01:10 V2M M 8 V2M 168
66 FREDELISY jean michel 03:02:46 V3M M 4 V3M 2
67 RIGAUD PAUL 03:03:38 V1M AC ST LEU M 15 V1M 115
68 CHALARD Sebastien 03:04:05 SEM M 30 SEM 35
69 ROBERT Cyril 03:06:08 V1M M 16 V1M 124
70 REBOULE GUYTO 03:07:02 V2M M 9 V2M 86
71 GASTRIN FREDO 03:07:03 V4M CASL M 1 V4M 82
72 ROULIN Yoan 03:07:03 SEM M 31 SEM 178
73 LEFEVRE PIERRE 03:08:49 V1M RUN ODYSSE M 17 V1M 107
74 DORVAL Jean Alain 03:08:51 V1M M 18 V1M 49
75 SEMANELE Donald 03:08:57 V1M M 19 V1M 197
76 TATIBOUET GILLES 03:09:18 V2M M 10 V2M 161
77 CHAUSSINAND LAURENCE 03:09:21 V1F AC ST LEU F 9 F - 4 V1F 108
78 WEIGEL GHISLAIN 03:09:28 SEM M 32 SEM 138
79 BELLAMY MARIANE 03:11:17 SEF AC ST LEU F 10 F - 4 SEF 36
80 PONTOIRE TIPHAINE 03:11:17 SEF AC ST LEU F 11 F - 5 SEF 29
81 GASP Augustin 03:13:56 V2M M 11 V2M 183
82 TECHER NICOLAS 03:14:31 SEM M 33 SEM 73
83 SAVELLI NICOLAS 03:14:32 V2M M 12 V2M 140
84 AUBIN jean denis 03:16:29 V1M M 20 V1M 55
85 ALBION damien 03:16:31 V1M M 21 V1M 104
86 VALIAMA judex 03:17:12 V2M M 13 V2M 134
87 VIDOT Marie Sophie 03:17:23 V1F F 12 F - 5 V1F 130
88 SANGARIN Jean Philippe 03:17:28 V2M M 14 V2M 173
89 LAW Yann 03:17:39 V3M M 5 V3M 170
90 LEGROS PASCAL 03:19:24 V2M RUN'A M 15 V2M 118
91 HUVIER DELPHINE 03:19:40 SEF AC ST LEU F 13 F - 6 SEF 53
92 DURAND Celine 03:19:49 SEF F 14 F - 7 SEF 83
93 NATIVEL ERIC 03:19:50 V1M M 22 V1M 3
94 VELTER Paul 03:21:00 SEM M 34 SEM 31
95 GUILLET johan 03:21:21 SEM M 35 SEM 1
96 AVRIAMA NICOLAS 03:22:07 V3M M 6 V3M 10
97 VITRY Christophe 03:24:35 SEM M 36 SEM 32
98 LEPERLIER Jeremy 03:24:44 V1M M 23 V1M 179
99 BATAILLE JEAN LOU 03:25:06 V1M AC ST LEU M 24 V1M 110
100 LACAILLE Wendy Jean 03:25:09 SEM M 37 SEM 129
101 MARTINPIRON JEAN LOUIS 03:27:55 V3M AC ST LEU M 7 V3M 81
102 HEUYER JULIEN 03:28:18 V1M M 25 V1M 126
103 ZITTE Olivier 03:29:05 V1M M 26 V1M 17
104 RICHARDEAU CECILE 03:30:03 SEF F 15 F - 8 SEF 133
105 FAUCOMPREZ SEBASTIEN 03:30:03 SEM M 38 SEM 48
106 MAILLOT JEAN LOUIS 03:32:06 SEM M 39 SEM 96
107 TRIOLET VASSELLE Marie Astrid 03:32:54 SEF F 16 F - 9 SEF 12
108 AMILHAT Thibaut 03:32:55 SEM M 40 SEM 139
109 VIDOT Sebastien 03:33:25 SEM M 41 SEM 163
110 VIRAMA JULIEN 03:36:10 SEM M 42 SEM 58
111 LEFEVRE DAVID 03:36:25 V1M M 27 V1M 84
112 ARZAC alexandra 03:38:49 SEF F 17 F - 10 SEF 131
113 JEGOU Marine 03:38:52 SEF F 18 F - 11 SEF 176
114 ALLAIN david 03:40:25 SEM M 43 SEM 61
115 ANGAMA NELSON 03:41:18 ESM M 3 ESM 99
116 SOUPAMA FREDERIC 03:41:19 SEM M 44 SEM 92
117 SAMAN LATCHIMY Leila 03:42:42 SEF F 19 F - 12 SEF 46
118 BATAILLE stephanie 03:42:44 SEF F 20 F - 13 SEF 39
119 RIVIERE CHRISTIAN 03:44:00 V2M RUN'A M 16 V2M 123
120 CATOUARIA Jean paul 03:44:45 V3M M 8 V3M 34
121 COUROUPOULA VITAL 03:45:04 V2M CASL M 17 V2M 144
122 LOAEC jean philippe 03:45:08 V1M M 28 V1M 85
123 FERRO Isabelle 03:46:20 V1F F 21 F - 6 V1F 37
124 KASSIMOU BAKARI SAID 03:47:17 SEM M 45 SEM 106
125 LEGROS MONIQUE 03:47:45 V2F RUN'A F 22 F - 3 V2F 119
126 MARTIN JEAN LUC 03:47:45 V2M AC ST LEU M 18 V2M 135
127 VIRASSAMY catherine 03:49:44 V1F F 23 F - 7 V1F 66
128 SIMON GUILLAUME 03:51:43 V1M M 29 V1M 102
129 FOUARD Marie 03:51:46 SEF F 24 F - 14 SEF 105
130 TRIVY jean marie 03:53:31 V1M M 30 V1M 67
131 RALLOTS YASMINA 03:54:56 SEF F 25 F - 15 SEF 97
132 GALLAND OLIVIER 03:55:01 V2M CSSDA M 19 V2M 57
133 LLEDOS MICHEL 03:56:05 V2M M 20 V2M 112
134 LALA Mohamed 03:57:32 V1M M 31 V1M 186
135 OUDART NORBERT 03:57:33 V2M M 21 V2M 113
136 AVRIAMA REINE MAY 03:57:36 V3F F 26 F - 1 V3F 11
137 VALETTE RENAUD 03:58:32 V1M M 32 V1M 42
138 MADECENE ROBERTO 03:59:36 SEM M 46 SEM 90
139 WASIER HUBERT 04:08:26 V1M M 33 V1M 162
140 BOYER joan 04:11:07 SEM M 47 SEM 23
141 HERODE Gianni 04:26:35 V1M M 34 V1M 40
142 PONTALBA Fidelio 04:26:35 V2M M 22 V2M 8
143 ACHERITEGUY MARION 04:30:41 V1F F 27 F - 8 V1F 101
144 COUROUPOULA YVETTE 04:31:25 V2F CASL F 28 F - 4 V2F 147
145 BROUTIN JOCELYNE 04:35:27 V4F F 29 F - 1 V4F 76
146 LOIN Benedicte 04:36:24 SEF F 30 F - 16 SEF 154
147 CLAUDON PIERRE OLIVIER 04:36:24 SEM M 48 SEM 117
148 SAVIGNY Nicolas 04:36:24 SEM M 49 SEM 167
149 PETIN JEROME 04:39:52 SEM M 50 SEM 156
150 MESSINET Julie 04:50:05 ESF F 31 F - 1 ESF 91
151 BOUKIR AICHA 04:50:09 V1F F 32 F - 9 V1F 93
152 OULEDI SOPHIE 05:10:28 V1F F 33 F - 10 V1F 50
153 VIRASSAMY Jorene 05:10:28 V1F F 34 F - 11 V1F 196
154 CATOUARIA Mylene 05:18:09 SEF F 35 F - 17 SEF 33
155 SORLIER SYLVIE 05:21:26 V2F F 36 F - 5 V2F 75
156 VANDENESSE MARIE PAULE 05:21:26 V1F F 37 F - 12 V1F 74
157 LEAR Betty 05:51:48 V1F F 38 F - 13 V1F 180


ReferencementCe site est listé dans la catégorie Sport : Sports extrêmes Dictionnaire
| Accueil | La Réunion  Vue du ciel | Météo | Cyclones | Volcan | Cirques de Mafate , Cilaos , Salazie | Photos Randonnées | Randonnées Réunion: Randos Espiègle , Courses montagne | Diagonale des Fous |  Marathon des Sables | Voyages Les stats du site | Fonds écran | Plan du site | Blog de runraid | Galerie photos Sport Réunion |